Time;durP1;ratioP1;P1;durP2;ratioP2;P2;SDS_P1;SDS_P2;PMS_P1;PMS_P2;Temp;Humidity;BMP_temperature;BMP_pressure;BME280_temperature;BME280_humidity;BME280_pressure;Samples;Min_cycle;Max_cycle;Signal;HPM_P1;HPM_P2
2022/01/01 00:02:23;;;;;;;7.30;6.50;;;22.90;75.10;;;;;;6297944;27;84006;-73
2022/01/01 00:05:26;;;;;;;7.55;6.43;;;22.90;75.50;;;;;;6295795;27;84973;-72
2022/01/01 00:08:28;;;;;;;7.13;6.05;;;22.90;76.00;;;;;;6288886;27;84014;-72
2022/01/01 00:11:30;;;;;;;6.68;6.07;;;22.90;76.00;;;;;;6300188;27;84293;-72
2022/01/01 00:14:32;;;;;;;7.13;6.43;;;22.80;76.10;;;;;;6295961;27;84012;-71
2022/01/01 00:17:36;;;;;;;6.97;6.28;;;22.80;76.10;;;;;;6294277;27;84218;-71
2022/01/01 00:20:38;;;;;;;8.43;6.35;;;22.80;76.00;;;;;;6293676;27;84215;-71
2022/01/01 00:23:40;;;;;;;6.43;5.82;;;22.80;75.90;;;;;;6300362;27;84040;-72
2022/01/01 00:26:42;;;;;;;6.75;6.03;;;22.80;75.80;;;;;;6303935;27;83230;-72
2022/01/01 00:29:44;;;;;;;6.40;5.72;;;22.80;75.60;;;;;;6289653;27;84168;-71
2022/01/01 00:32:48;;;;;;;8.10;6.20;;;22.80;76.30;;;;;;6309079;27;83209;-73
2022/01/01 00:35:50;;;;;;;8.68;6.40;;;22.80;76.80;;;;;;6289978;27;84940;-71
2022/01/01 00:38:52;;;;;;;9.02;8.10;;;22.70;76.70;;;;;;6302577;27;84060;-71
2022/01/01 00:41:54;;;;;;;17.67;15.75;;;22.80;76.70;;;;;;6300080;27;84058;-72
2022/01/01 00:44:56;;;;;;;40.05;34.55;;;22.80;76.70;;;;;;6321449;27;84116;-72
2022/01/01 00:47:59;;;;;;;60.63;53.63;;;22.80;76.60;;;;;;6298152;27;84119;-70
2022/01/01 00:51:02;;;;;;;106.20;94.88;;;22.80;76.40;;;;;;6294264;27;84011;-73
2022/01/01 00:54:04;;;;;;;175.23;156.20;;;22.80;76.50;;;;;;6297968;27;84035;-73
2022/01/01 00:57:06;;;;;;;198.32;176.75;;;22.80;77.40;;;;;;6299101;27;85182;-71
2022/01/01 01:00:10;;;;;;;228.98;204.80;;;22.80;76.40;;;;;;6299458;27;85648;-73
2022/01/01 01:03:15;;;;;;;301.33;269.70;;;22.80;76.50;;;;;;6294450;27;85185;-71
2022/01/01 01:06:17;;;;;;;264.85;237.30;;;22.80;77.10;;;;;;6287319;27;85196;-73
2022/01/01 01:09:19;;;;;;;261.38;234.13;;;22.80;77.30;;;;;;6285541;27;85406;-73
2022/01/01 01:12:25;;;;;;;250.55;224.68;;;22.80;77.10;;;;;;6293477;27;85319;-73
2022/01/01 01:15:30;;;;;;;248.35;223.18;;;22.70;76.90;;;;;;6282895;27;85309;-74
2022/01/01 01:18:33;;;;;;;231.57;206.95;;;22.70;76.80;;;;;;6298667;27;85360;-72
2022/01/01 01:21:35;;;;;;;226.05;202.90;;;22.80;76.70;;;;;;6292947;27;85835;-72
2022/01/01 01:24:39;;;;;;;217.98;195.40;;;22.80;76.60;;;;;;6287491;27;85801;-74
2022/01/01 01:27:43;;;;;;;209.00;187.52;;;22.80;76.60;;;;;;6289683;27;85328;-73
2022/01/01 01:30:46;;;;;;;199.85;179.05;;;22.70;76.50;;;;;;6291977;27;87602;-74
2022/01/01 01:33:49;;;;;;;216.95;194.95;;;22.70;76.30;;;;;;6286815;27;85602;-73
2022/01/01 01:36:51;;;;;;;208.27;187.32;;;22.70;76.60;;;;;;6290087;27;85248;-73
2022/01/01 01:39:53;;;;;;;201.70;181.43;;;22.80;76.60;;;;;;6289850;27;85804;-74
2022/01/01 01:42:55;;;;;;;184.80;165.40;;;22.70;76.40;;;;;;6315639;27;85305;-71
2022/01/01 01:46:03;;;;;;;199.05;179.07;;;22.80;76.50;;;;;;6297436;27;85294;-73
2022/01/01 01:49:06;;;;;;;186.55;166.85;;;22.70;76.60;;;;;;6292946;27;86192;-74
2022/01/01 01:52:08;;;;;;;176.13;157.65;;;22.70;76.50;;;;;;6296999;27;85572;-74
2022/01/01 01:55:12;;;;;;;176.88;158.13;;;22.70;76.40;;;;;;6286159;27;85205;-73
2022/01/01 01:58:14;;;;;;;173.07;154.80;;;22.70;76.50;;;;;;6294072;27;85728;-73
2022/01/01 02:01:24;;;;;;;160.77;144.18;;;22.70;76.40;;;;;;6294671;27;85296;-74
2022/01/01 02:04:27;;;;;;;129.60;116.43;;;22.70;76.20;;;;;;6283199;27;85276;-73
2022/01/01 02:07:30;;;;;;;122.13;110.15;;;22.70;75.60;;;;;;6283690;27;86194;-73
2022/01/01 02:10:34;;;;;;;133.18;119.95;;;22.70;75.40;;;;;;6299939;27;86360;-72
2022/01/01 02:13:48;;;;;;;132.68;119.38;;;22.70;75.50;;;;;;6288747;27;85837;-73
2022/01/01 02:20:13;;;;;;;127.55;114.90;;;22.70;75.70;;;;;;6287491;27;85789;-74
2022/01/01 02:23:15;;;;;;;124.78;112.43;;;22.70;75.80;;;;;;6302107;27;85111;-72
2022/01/01 02:26:17;;;;;;;120.65;108.55;;;22.70;75.70;;;;;;6297124;27;85277;-73
2022/01/01 02:29:20;;;;;;;117.50;106.43;;;22.70;75.70;;;;;;6299115;27;86193;-73
2022/01/01 02:32:22;;;;;;;119.03;107.32;;;22.70;75.70;;;;;;6311191;27;85100;-73
2022/01/01 02:35:25;;;;;;;114.38;102.88;;;22.70;75.80;;;;;;6303630;27;85180;-73
2022/01/01 02:38:27;;;;;;;109.40;98.35;;;22.60;75.70;;;;;;6300185;27;85310;-73
2022/01/01 02:41:30;;;;;;;105.35;95.05;;;22.60;75.70;;;;;;6310383;27;83842;-72
2022/01/01 02:44:32;;;;;;;101.30;91.30;;;22.60;75.70;;;;;;6312412;27;83764;-72
2022/01/01 02:47:34;;;;;;;98.10;88.72;;;22.60;75.70;;;;;;6309241;27;84240;-73
2022/01/01 02:50:38;;;;;;;99.82;90.25;;;22.60;75.70;;;;;;6311261;27;84022;-72
2022/01/01 02:53:42;;;;;;;94.15;84.90;;;22.60;75.70;;;;;;6299671;27;84028;-73
2022/01/01 02:56:44;;;;;;;93.97;84.85;;;22.60;75.70;;;;;;6313140;27;84013;-73
2022/01/01 02:59:48;;;;;;;89.72;81.00;;;22.60;75.80;;;;;;6312877;27;83182;-73
2022/01/01 03:02:50;;;;;;;87.85;78.80;;;22.60;75.80;;;;;;6303485;27;84264;-73
2022/01/01 03:05:53;;;;;;;82.82;74.70;;;22.60;75.80;;;;;;6291747;27;84034;-73
2022/01/01 03:08:56;;;;;;;82.20;74.53;;;22.60;75.70;;;;;;6312408;27;84187;-73
2022/01/01 03:11:58;;;;;;;77.28;69.88;;;22.60;75.70;;;;;;6286679;27;82872;-73
2022/01/01 03:15:00;;;;;;;75.07;67.65;;;22.60;75.70;;;;;;6299959;27;84110;-73
2022/01/01 03:18:02;;;;;;;74.22;66.82;;;22.50;75.70;;;;;;6288806;27;83346;-73
2022/01/01 03:21:06;;;;;;;73.10;66.10;;;22.50;75.70;;;;;;6304157;27;83939;-72
2022/01/01 03:24:09;;;;;;;69.63;62.70;;;22.60;75.80;;;;;;6291255;27;83778;-73
2022/01/01 03:27:11;;;;;;;68.55;61.67;;;22.60;75.90;;;;;;6311446;27;84439;-70
2022/01/01 03:30:13;;;;;;;68.15;61.33;;;22.50;75.80;;;;;;6301337;27;84719;-73
2022/01/01 03:33:15;;;;;;;66.70;59.92;;;22.50;75.90;;;;;;6298598;27;82925;-72
2022/01/01 03:36:19;;;;;;;65.38;58.78;;;22.50;75.90;;;;;;6288408;27;84060;-73
2022/01/01 03:39:22;;;;;;;63.47;56.97;;;22.50;75.90;;;;;;6299732;27;85224;-74
2022/01/01 03:42:24;;;;;;;61.50;55.33;;;22.50;75.90;;;;;;6311429;27;82909;-73
2022/01/01 03:45:26;;;;;;;59.85;53.95;;;22.50;75.90;;;;;;6306896;27;86016;-72
2022/01/01 03:48:28;;;;;;;58.08;52.42;;;22.50;76.00;;;;;;6289234;27;84187;-73
2022/01/01 03:51:32;;;;;;;57.53;51.72;;;22.50;76.00;;;;;;6298533;27;82813;-71
2022/01/01 03:54:34;;;;;;;56.78;51.17;;;22.50;76.10;;;;;;6310792;27;84447;-73
2022/01/01 03:57:36;;;;;;;54.45;49.03;;;22.40;75.90;;;;;;6309362;27;82968;-73
2022/01/01 04:00:40;;;;;;;53.88;48.58;;;22.40;76.00;;;;;;6299102;27;83189;-72
2022/01/01 04:03:43;;;;;;;52.70;47.58;;;22.40;76.00;;;;;;6308743;27;83971;-73
2022/01/01 04:06:47;;;;;;;51.95;46.75;;;22.40;76.00;;;;;;6297234;27;84803;-73
2022/01/01 04:09:49;;;;;;;50.53;45.53;;;22.40;76.10;;;;;;6297474;27;83832;-71
2022/01/01 04:12:51;;;;;;;49.88;44.97;;;22.40;76.20;;;;;;6290801;27;84615;-73
2022/01/01 04:15:53;;;;;;;48.63;43.90;;;22.40;76.20;;;;;;6300389;27;84123;-73
2022/01/01 04:18:55;;;;;;;48.08;43.50;;;22.40;76.30;;;;;;6302184;27;83932;-72
2022/01/01 04:21:58;;;;;;;46.90;42.45;;;22.40;76.20;;;;;;6295749;27;84022;-72
2022/01/01 04:25:00;;;;;;;46.15;41.65;;;22.30;76.20;;;;;;6309276;27;83254;-73
2022/01/01 04:28:03;;;;;;;44.20;39.60;;;22.30;76.30;;;;;;6294430;27;89040;-73
2022/01/01 04:31:05;;;;;;;43.58;39.38;;;22.40;76.40;;;;;;6306064;27;88586;-74
2022/01/01 04:34:07;;;;;;;43.38;39.15;;;22.30;76.20;;;;;;6292203;27;89073;-73
2022/01/01 04:37:12;;;;;;;42.10;38.08;;;22.30;76.30;;;;;;6284257;27;89131;-73
2022/01/01 04:40:15;;;;;;;39.90;36.17;;;22.30;77.20;;;;;;6293000;27;89993;-73
2022/01/01 04:43:17;;;;;;;40.63;36.67;;;22.30;76.40;;;;;;6295975;27;89002;-72
2022/01/01 04:46:19;;;;;;;39.20;35.40;;;22.30;76.30;;;;;;6283662;27;89144;-72
2022/01/01 04:49:22;;;;;;;39.20;35.40;;;22.40;76.20;;;;;;6306399;27;89381;-73
2022/01/01 04:52:25;;;;;;;37.50;34.03;;;22.40;76.20;;;;;;6305638;27;88276;-74
2022/01/01 04:55:27;;;;;;;36.35;32.75;;;22.40;76.20;;;;;;6308016;27;89092;-74
2022/01/01 04:58:29;;;;;;;35.33;32.03;;;22.30;76.10;;;;;;6286499;27;89056;-74
2022/01/01 05:01:31;;;;;;;35.25;31.95;;;22.30;76.20;;;;;;6280329;27;87202;-73
2022/01/01 05:04:33;;;;;;;34.63;31.27;;;22.40;76.30;;;;;;6299045;27;87932;-73
2022/01/01 05:07:37;;;;;;;34.17;30.77;;;22.40;76.30;;;;;;6307498;27;89182;-72
2022/01/01 05:10:39;;;;;;;33.92;30.73;;;22.40;76.30;;;;;;6301282;27;89955;-74
2022/01/01 05:13:41;;;;;;;33.05;30.00;;;22.40;76.30;;;;;;6307147;27;89022;-74
2022/01/01 05:16:44;;;;;;;32.47;29.38;;;22.40;76.40;;;;;;6293148;27;89136;-73
2022/01/01 05:19:46;;;;;;;32.08;28.83;;;22.40;76.40;;;;;;6298168;27;88895;-73
2022/01/01 05:22:50;;;;;;;30.90;27.95;;;22.30;76.40;;;;;;6298077;27;87936;-73
2022/01/01 05:25:52;;;;;;;32.88;29.55;;;22.30;76.40;;;;;;6299207;27;89060;-74
2022/01/01 05:28:54;;;;;;;28.92;26.23;;;22.30;76.40;;;;;;6293086;27;89073;-73
2022/01/01 05:31:56;;;;;;;27.90;25.25;;;22.30;76.50;;;;;;6302372;27;88396;-72
2022/01/01 05:34:58;;;;;;;29.15;26.25;;;22.30;76.60;;;;;;6283319;27;88145;-73
2022/01/01 05:38:02;;;;;;;27.92;25.30;;;22.30;76.60;;;;;;6296498;27;89065;-73
2022/01/01 05:41:04;;;;;;;28.55;25.52;;;22.30;76.60;;;;;;6305397;27;89957;-73
2022/01/01 05:44:06;;;;;;;27.30;24.70;;;22.30;76.70;;;;;;6303861;27;89101;-73
2022/01/01 05:47:08;;;;;;;27.10;24.42;;;22.30;76.70;;;;;;6296578;27;89118;-73
2022/01/01 05:50:10;;;;;;;26.65;23.85;;;22.30;76.80;;;;;;6306915;27;89053;-74
2022/01/01 05:53:14;;;;;;;26.65;23.95;;;22.30;76.70;;;;;;6297284;27;89062;-73
2022/01/01 05:56:16;;;;;;;26.40;23.77;;;22.30;76.70;;;;;;6297458;27;89064;-73
2022/01/01 05:59:18;;;;;;;25.45;22.95;;;22.30;76.70;;;;;;6312057;27;87051;-73
2022/01/01 06:02:20;;;;;;;24.38;21.88;;;22.30;76.70;;;;;;6285376;27;87050;-73
2022/01/01 06:05:22;;;;;;;25.13;22.73;;;22.30;76.90;;;;;;6295131;27;89161;-73
2022/01/01 06:08:28;;;;;;;25.15;22.55;;;22.30;76.80;;;;;;6286459;27;87007;-73
2022/01/01 06:11:30;;;;;;;22.95;20.75;;;22.30;76.80;;;;;;6290867;27;90063;-73
2022/01/01 06:14:32;;;;;;;23.05;20.55;;;22.30;76.80;;;;;;6296236;27;88313;-73
2022/01/01 06:17:34;;;;;;;22.60;20.40;;;22.30;76.80;;;;;;6295349;27;88966;-73
2022/01/01 06:20:36;;;;;;;22.45;20.33;;;22.30;76.70;;;;;;6300948;27;89189;-71
2022/01/01 06:23:40;;;;;;;22.48;20.20;;;22.20;76.70;;;;;;6300320;27;89177;-74
2022/01/01 06:26:42;;;;;;;21.42;19.42;;;22.20;76.80;;;;;;6297697;27;88011;-73
2022/01/01 06:29:45;;;;;;;22.45;20.25;;;22.30;76.90;;;;;;6298644;27;88935;-73
2022/01/01 06:32:49;;;;;;;20.30;18.35;;;22.20;76.90;;;;;;6284775;27;87281;-74
2022/01/01 06:35:52;;;;;;;20.55;18.50;;;22.30;77.00;;;;;;6297966;27;89312;-74
2022/01/01 06:38:55;;;;;;;20.50;18.48;;;22.30;76.90;;;;;;6298038;27;89086;-75
2022/01/01 06:41:57;;;;;;;19.55;17.55;;;22.30;76.90;;;;;;6286577;27;89986;-74
2022/01/01 06:44:59;;;;;;;20.33;18.23;;;22.30;76.90;;;;;;6300314;27;87775;-74
2022/01/01 06:48:02;;;;;;;19.27;17.35;;;22.30;76.90;;;;;;6297804;27;88869;-73
2022/01/01 06:51:04;;;;;;;19.30;17.23;;;22.30;76.80;;;;;;6284532;27;89184;-73
2022/01/01 06:54:07;;;;;;;18.70;16.80;;;22.30;76.80;;;;;;6282607;27;86981;-73
2022/01/01 06:57:09;;;;;;;18.55;16.63;;;22.30;76.70;;;;;;6295986;27;89210;-73
2022/01/01 07:00:13;;;;;;;17.88;16.17;;;22.30;76.80;;;;;;6289044;27;89181;-74
2022/01/01 07:03:21;;;;;;;17.92;16.10;;;22.30;76.70;;;;;;6289436;27;87249;-73
2022/01/01 07:06:23;;;;;;;17.13;15.32;;;22.30;76.80;;;;;;6283301;27;89140;-73
2022/01/01 07:09:27;;;;;;;17.10;15.40;;;22.30;76.70;;;;;;6300784;27;89469;-72
2022/01/01 07:12:29;;;;;;;17.05;15.25;;;22.40;76.80;;;;;;6295398;27;89921;-71
2022/01/01 07:15:31;;;;;;;17.02;15.23;;;22.40;76.80;;;;;;6292645;27;89075;-73
2022/01/01 07:18:33;;;;;;;15.45;13.93;;;22.40;76.80;;;;;;6292990;27;89065;-73
2022/01/01 07:21:35;;;;;;;16.65;14.85;;;22.40;76.80;;;;;;6295907;27;89061;-73
2022/01/01 07:24:39;;;;;;;14.20;12.80;;;22.40;76.90;;;;;;6283489;27;89000;-73
2022/01/01 07:27:41;;;;;;;14.65;13.25;;;22.40;76.70;;;;;;6298270;27;87710;-72
2022/01/01 07:30:43;;;;;;;15.63;14.02;;;22.40;76.70;;;;;;6305480;27;89050;-73
2022/01/01 07:33:45;;;;;;;15.65;13.95;;;22.40;76.70;;;;;;6307385;27;88324;-72
2022/01/01 07:36:48;;;;;;;14.57;13.07;;;22.40;76.70;;;;;;6290531;27;89146;-74
2022/01/01 07:39:51;;;;;;;14.85;13.35;;;22.40;76.80;;;;;;6283298;27;87775;-74
2022/01/01 07:42:53;;;;;;;14.38;12.88;;;22.40;76.80;;;;;;6299602;27;88815;-74
2022/01/01 07:45:55;;;;;;;13.32;11.98;;;22.40;76.80;;;;;;6286236;27;88537;-73
2022/01/01 07:48:58;;;;;;;14.18;12.77;;;22.40;76.80;;;;;;6287966;27;89107;-73
2022/01/01 07:52:00;;;;;;;13.38;12.07;;;22.40;76.90;;;;;;6295595;27;87760;-73
2022/01/01 07:55:04;;;;;;;13.88;12.48;;;22.40;76.80;;;;;;6288319;27;89190;-72
2022/01/01 07:58:08;;;;;;;13.20;11.90;;;22.40;76.90;;;;;;6299807;27;89143;-73
2022/01/01 08:01:10;;;;;;;12.75;11.45;;;22.40;76.90;;;;;;6307058;27;89114;-74
2022/01/01 08:04:12;;;;;;;12.80;11.60;;;22.40;76.90;;;;;;6284769;27;88351;-73
2022/01/01 08:07:14;;;;;;;12.38;11.25;;;22.40;76.90;;;;;;6291611;27;89401;-74
2022/01/01 08:10:20;;;;;;;12.68;11.43;;;22.40;76.90;;;;;;6292467;27;89097;-73
2022/01/01 08:13:24;;;;;;;12.18;10.73;;;22.40;76.90;;;;;;6288663;27;90013;-73
2022/01/01 08:16:26;;;;;;;12.65;11.30;;;22.40;76.90;;;;;;6293818;27;89277;-73
2022/01/01 08:19:29;;;;;;;12.35;11.05;;;22.40;76.90;;;;;;6294248;27;89424;-74
2022/01/01 08:22:31;;;;;;;12.20;11.00;;;22.40;76.90;;;;;;6286510;27;89015;-73
2022/01/01 08:25:35;;;;;;;12.07;10.88;;;22.40;76.90;;;;;;6293701;27;89075;-73
2022/01/01 08:28:37;;;;;;;10.85;9.75;;;22.40;76.90;;;;;;6288164;27;87779;-72
2022/01/01 08:31:39;;;;;;;11.10;9.93;;;22.40;76.90;;;;;;6296155;27;88987;-74
2022/01/01 08:34:41;;;;;;;11.57;10.18;;;22.40;76.90;;;;;;6282594;27;87223;-72
2022/01/01 08:37:43;;;;;;;11.13;10.02;;;22.40;76.90;;;;;;6282094;27;89057;-73
2022/01/01 08:40:47;;;;;;;10.77;9.68;;;22.40;76.90;;;;;;6282739;27;89098;-74
2022/01/01 08:43:49;;;;;;;11.38;10.18;;;22.40;76.90;;;;;;6306152;27;90095;-73
2022/01/01 08:46:51;;;;;;;10.45;9.35;;;22.40;76.90;;;;;;6294882;27;89020;-74
2022/01/01 08:49:54;;;;;;;10.63;9.57;;;22.40;76.90;;;;;;6285875;27;89093;-73
2022/01/01 08:52:57;;;;;;;10.70;9.60;;;22.40;77.00;;;;;;6296946;27;89050;-71
2022/01/01 08:56:02;;;;;;;11.00;9.77;;;22.40;77.00;;;;;;6295299;27;89009;-69
2022/01/01 08:59:04;;;;;;;10.73;9.63;;;22.40;77.20;;;;;;6297192;27;87909;-70
2022/01/01 09:02:06;;;;;;;10.43;9.32;;;22.40;77.60;;;;;;6292898;27;87955;-75
2022/01/01 09:05:09;;;;;;;10.80;9.57;;;22.40;79.70;;;;;;6285326;27;87289;-77
2022/01/01 09:08:11;;;;;;;10.57;9.00;;;22.50;78.50;;;;;;6294769;27;88283;-74
2022/01/01 09:11:17;;;;;;;10.25;9.15;;;22.50;78.80;;;;;;6287345;27;89155;-74
2022/01/01 09:14:19;;;;;;;10.23;9.23;;;22.50;78.60;;;;;;6292852;27;90059;-74
2022/01/01 09:17:21;;;;;;;9.05;8.15;;;22.50;78.80;;;;;;6282724;27;89082;-75
2022/01/01 09:20:23;;;;;;;8.82;7.93;;;22.60;78.60;;;;;;6286765;27;89022;-74
2022/01/01 09:23:25;;;;;;;10.05;8.52;;;22.60;78.20;;;;;;6291552;27;89305;-74
2022/01/01 09:26:29;;;;;;;9.75;8.75;;;22.50;78.40;;;;;;6284290;27;89200;-71
2022/01/01 09:29:31;;;;;;;8.98;8.07;;;22.60;78.60;;;;;;6294977;27;88725;-74
2022/01/01 09:32:34;;;;;;;9.15;8.25;;;22.60;78.60;;;;;;6293139;27;89010;-75
2022/01/01 09:35:36;;;;;;;9.90;7.93;;;22.60;78.60;;;;;;6295757;27;87306;-74
2022/01/01 09:38:38;;;;;;;8.75;7.82;;;22.60;78.70;;;;;;6283383;27;89125;-76
2022/01/01 09:41:42;;;;;;;9.15;7.47;;;22.60;78.90;;;;;;6294432;27;88991;-72
2022/01/01 09:44:45;;;;;;;8.82;7.35;;;22.60;79.30;;;;;;6304284;27;90448;-73
2022/01/01 09:47:48;;;;;;;8.65;7.72;;;22.60;79.30;;;;;;6305661;27;89604;-77
2022/01/01 09:50:54;;;;;;;12.55;7.72;;;22.60;79.50;;;;;;6297704;27;87903;-73
2022/01/01 09:53:56;;;;;;;10.05;6.72;;;22.60;82.10;;;;;;6280947;27;89072;-75
2022/01/01 09:56:59;;;;;;;8.45;6.88;;;22.60;79.80;;;;;;6284503;27;89122;-77
2022/01/01 10:00:01;;;;;;;7.32;6.18;;;22.60;79.90;;;;;;6295089;27;89016;-76
2022/01/01 10:03:03;;;;;;;7.63;6.82;;;22.60;79.40;;;;;;6285230;27;89906;-76
2022/01/01 10:06:08;;;;;;;9.48;6.30;;;22.60;79.60;;;;;;6289089;27;88437;-75
2022/01/01 10:09:10;;;;;;;7.13;6.38;;;22.60;79.50;;;;;;6294237;27;89406;-74
2022/01/01 10:12:16;;;;;;;6.95;5.80;;;22.70;79.60;;;;;;6285178;27;89256;-75
2022/01/01 10:15:19;;;;;;;361.08;302.17;;;22.60;79.60;;;;;;6293942;27;87944;-74
2022/01/01 10:18:26;;;;;;;851.25;596.42;;;22.70;82.50;;;;;;6287823;27;87942;-72
2022/01/01 10:21:34;;;;;;;368.83;230.93;;;22.80;84.90;;;;;;6300840;27;87943;-72
2022/01/01 10:27:42;;;;;;;179.85;118.03;;;22.80;85.60;;;;;;6288013;27;89021;-70
2022/01/01 10:28:05;;;;;;;110.10;68.55;;;22.90;82.00;;;;;;6290683;27;88075;-70
2022/01/01 10:31:09;;;;;;;82.72;51.88;;;22.90;80.70;;;;;;6289188;27;88961;-71
2022/01/01 10:34:14;;;;;;;66.82;42.38;;;23.00;80.30;;;;;;6292732;27;89135;-70
2022/01/01 10:37:16;;;;;;;53.83;35.20;;;23.00;79.70;;;;;;6283457;27;90166;-70
2022/01/01 10:40:26;;;;;;;44.58;30.17;;;23.10;79.40;;;;;;6294752;27;91283;-71
2022/01/01 10:43:37;;;;;;;42.15;27.65;;;23.10;78.80;;;;;;6289367;27;88737;-71
2022/01/01 10:46:40;;;;;;;37.15;24.90;;;23.20;78.30;;;;;;6294988;27;89916;-72
2022/01/01 10:50:13;;;;;;;36.65;22.63;;;23.10;78.10;;;;;;6294280;27;89209;-73
2022/01/01 10:53:16;;;;;;;34.08;20.85;;;23.10;82.00;;;;;;6290196;27;88595;-70
2022/01/01 10:56:19;;;;;;;34.30;20.00;;;23.10;83.10;;;;;;6295466;27;88999;-71
2022/01/01 10:59:31;;;;;;;37.75;19.90;;;23.10;80.70;;;;;;6292776;27;91157;-71
2022/01/01 11:02:33;;;;;;;34.70;18.00;;;23.00;80.40;;;;;;6292161;27;87902;-70
2022/01/01 11:05:37;;;;;;;36.47;16.95;;;23.10;80.30;;;;;;6292853;27;89383;-70
2022/01/01 11:08:41;;;;;;;34.13;16.88;;;23.00;79.80;;;;;;6295756;27;88205;-70
2022/01/01 11:11:44;;;;;;;22.38;13.57;;;23.00;79.70;;;;;;6305581;27;89091;-69
2022/01/01 11:14:48;;;;;;;19.83;12.43;;;22.90;79.10;;;;;;6299262;27;89410;-70
2022/01/01 11:17:50;;;;;;;20.63;11.25;;;22.90;78.60;;;;;;6292617;27;90311;-70
2022/01/01 11:20:53;;;;;;;23.10;10.82;;;22.90;78.00;;;;;;6289840;27;89094;-69
2022/01/01 11:23:56;;;;;;;19.63;9.80;;;22.90;78.90;;;;;;6285445;27;89346;-69
2022/01/01 11:26:59;;;;;;;16.30;9.40;;;22.90;78.60;;;;;;6294778;27;89098;-68
2022/01/01 11:30:07;;;;;;;18.80;10.52;;;22.90;78.60;;;;;;6296326;27;89191;-69
2022/01/01 11:33:12;;;;;;;31.20;14.70;;;22.90;78.50;;;;;;6292335;27;90774;-69
2022/01/01 11:36:20;;;;;;;29.92;13.95;;;22.90;79.60;;;;;;6284403;27;90546;-69
2022/01/01 11:39:23;;;;;;;26.05;13.73;;;22.90;79.70;;;;;;6290733;27;89577;-67
2022/01/01 11:42:25;;;;;;;27.45;13.07;;;22.90;80.10;;;;;;6291738;27;89048;-68
2022/01/01 11:45:43;;;;;;;26.35;12.13;;;22.90;80.60;;;;;;6289746;27;89069;-69
2022/01/01 11:48:51;;;;;;;20.73;10.98;;;22.90;80.20;;;;;;6285669;27;90226;-69
2022/01/01 11:51:54;;;;;;;19.70;11.30;;;22.90;79.60;;;;;;6302202;27;89057;-69
2022/01/01 11:55:01;;;;;;;21.95;10.93;;;22.90;80.50;;;;;;6292773;27;88034;-69
2022/01/01 11:58:12;;;;;;;21.63;11.45;;;22.90;80.60;;;;;;6289760;27;89008;-69
2022/01/01 12:01:18;;;;;;;17.50;10.38;;;22.90;80.50;;;;;;6297047;27;89211;-71
2022/01/01 12:04:25;;;;;;;18.70;10.55;;;23.00;80.30;;;;;;6289283;27;89154;-68
2022/01/01 12:07:31;;;;;;;17.70;10.45;;;22.90;80.00;;;;;;6279923;27;89151;-70
2022/01/01 12:10:36;;;;;;;17.95;9.57;;;22.90;80.20;;;;;;6283698;27;88429;-68
2022/01/01 12:13:39;;;;;;;14.20;9.07;;;22.90;80.00;;;;;;6285764;27;89129;-71
2022/01/01 12:16:50;;;;;;;18.40;9.60;;;22.90;79.70;;;;;;6287885;27;89592;-71
2022/01/01 12:19:55;;;;;;;26.50;10.10;;;23.00;79.60;;;;;;6288503;27;89981;-69
2022/01/01 12:22:58;;;;;;;15.73;8.52;;;22.90;79.60;;;;;;6290574;27;89501;-69
2022/01/01 12:26:00;;;;;;;14.77;8.85;;;23.00;79.80;;;;;;6290780;27;88955;-69
2022/01/01 12:29:04;;;;;;;13.10;8.23;;;23.00;79.60;;;;;;6291845;27;89108;-70
2022/01/01 12:32:38;;;;;;;14.45;8.63;;;23.00;79.50;;;;;;6281463;27;89374;-69
2022/01/01 12:35:51;;;;;;;14.77;8.00;;;23.00;79.40;;;;;;6283601;27;89165;-69
2022/01/01 12:38:55;;;;;;;14.85;8.25;;;23.00;79.30;;;;;;6293186;27;89280;-70
2022/01/01 12:41:57;;;;;;;13.80;7.80;;;23.00;79.30;;;;;;6293001;27;88319;-70
2022/01/01 12:45:01;;;;;;;15.80;8.40;;;23.00;79.30;;;;;;6292217;27;89313;-69
2022/01/01 12:48:05;;;;;;;14.23;8.10;;;23.00;84.20;;;;;;6295444;27;86931;-69
2022/01/01 12:51:10;;;;;;;12.05;7.57;;;23.00;84.00;;;;;;6307631;27;90029;-69
2022/01/01 12:54:14;;;;;;;12.95;7.03;;;23.10;82.70;;;;;;6308290;27;87909;-70
2022/01/01 12:57:17;;;;;;;11.85;6.88;;;23.10;81.80;;;;;;6293880;27;89058;-69
2022/01/01 13:00:42;;;;;;;16.92;7.57;;;23.10;81.30;;;;;;6287169;27;89004;-67
2022/01/01 13:03:48;;;;;;;11.65;7.05;;;23.10;81.00;;;;;;6307056;27;89059;-68
2022/01/01 13:06:51;;;;;;;11.70;6.70;;;23.10;80.80;;;;;;6284389;27;88211;-70
2022/01/01 13:10:00;;;;;;;10.95;6.40;;;23.10;80.60;;;;;;6283094;27;88979;-70
2022/01/01 13:13:06;;;;;;;10.75;6.60;;;23.10;80.30;;;;;;6290163;27;88401;-69
2022/01/01 13:16:09;;;;;;;10.63;6.60;;;23.10;80.00;;;;;;6293277;27;89106;-69
2022/01/01 13:19:12;;;;;;;11.10;6.10;;;23.00;79.80;;;;;;6294970;27;89380;-69
2022/01/01 13:22:14;;;;;;;8.75;5.82;;;23.00;79.60;;;;;;6301638;27;90803;-68
2022/01/01 13:25:16;;;;;;;8.27;6.30;;;23.00;79.60;;;;;;6285202;27;89103;-70
2022/01/01 13:28:18;;;;;;;8.98;6.00;;;23.00;79.50;;;;;;6306872;27;89072;-69
2022/01/01 13:31:21;;;;;;;9.57;5.90;;;23.00;79.40;;;;;;6295232;27;88995;-70
2022/01/01 13:34:25;;;;;;;9.93;5.82;;;23.00;79.60;;;;;;6292149;27;89030;-69
2022/01/01 13:37:27;;;;;;;10.68;6.22;;;23.00;79.40;;;;;;6282768;27;89033;-69
2022/01/01 13:40:29;;;;;;;8.65;5.57;;;22.90;79.40;;;;;;6302582;27;88248;-69
2022/01/01 13:43:32;;;;;;;9.35;6.00;;;23.00;79.40;;;;;;6311908;27;88292;-70
2022/01/01 13:46:35;;;;;;;9.65;5.70;;;22.90;79.30;;;;;;6295721;27;89367;-70
2022/01/01 13:49:42;;;;;;;9.10;5.60;;;23.00;79.30;;;;;;6296555;27;87985;-69
2022/01/01 13:52:54;;;;;;;9.30;5.68;;;22.90;79.30;;;;;;6293172;27;90341;-70
2022/01/01 13:55:56;;;;;;;7.95;4.70;;;22.90;79.30;;;;;;6281885;27;88982;-69
2022/01/01 13:58:58;;;;;;;8.30;4.93;;;22.90;79.30;;;;;;6296467;27;89400;-70
2022/01/01 14:02:00;;;;;;;11.43;5.55;;;22.90;79.30;;;;;;6297109;27;89535;-68
2022/01/01 14:05:04;;;;;;;8.13;5.40;;;22.90;79.20;;;;;;6296348;27;89709;-69
2022/01/01 14:08:16;;;;;;;8.35;5.03;;;22.90;79.20;;;;;;6294797;27;89017;-70
2022/01/01 14:11:18;;;;;;;7.15;4.78;;;22.90;79.20;;;;;;6295692;27;88977;-70
2022/01/01 14:14:28;;;;;;;6.38;4.80;;;22.90;79.10;;;;;;6287573;27;88315;-68
2022/01/01 14:17:49;;;;;;;6.78;4.88;;;22.90;79.10;;;;;;6299762;27;89196;-69
2022/01/01 14:20:54;;;;;;;6.95;4.88;;;22.80;79.00;;;;;;6297732;27;89115;-70
2022/01/01 14:24:04;;;;;;;5.80;4.40;;;22.90;79.10;;;;;;6291357;27;90144;-70
2022/01/01 14:27:07;;;;;;;8.07;4.60;;;22.90;79.10;;;;;;6299229;27;89008;-69
2022/01/01 14:30:10;;;;;;;7.18;4.78;;;22.90;79.00;;;;;;6284718;27;88994;-70
2022/01/01 14:33:13;;;;;;;6.72;4.53;;;22.90;79.80;;;;;;6286762;27;89127;-70
2022/01/01 14:36:17;;;;;;;6.32;4.65;;;22.90;79.00;;;;;;6305485;27;89272;-69
2022/01/01 14:39:20;;;;;;;5.70;4.18;;;22.80;78.90;;;;;;6299839;27;89168;-69
2022/01/01 14:42:22;;;;;;;5.65;4.07;;;22.90;78.90;;;;;;6313343;27;89106;-69
2022/01/01 14:45:25;;;;;;;6.32;4.00;;;22.90;78.90;;;;;;6319611;27;88328;-69
2022/01/01 14:48:34;;;;;;;6.32;4.10;;;22.80;78.70;;;;;;6310209;27;89422;-69
2022/01/01 14:51:45;;;;;;;5.65;4.13;;;22.80;78.80;;;;;;6309616;27;89449;-69
2022/01/01 14:55:00;;;;;;;6.80;4.18;;;22.90;78.80;;;;;;6296565;27;90502;-70
2022/01/01 14:58:06;;;;;;;5.07;3.75;;;22.80;78.70;;;;;;6297809;27;87950;-68
2022/01/01 15:01:08;;;;;;;6.85;4.20;;;22.80;78.70;;;;;;6301076;27;89096;-69
2022/01/01 15:04:11;;;;;;;5.57;3.92;;;22.80;78.70;;;;;;6297216;27;89104;-70
2022/01/01 15:07:15;;;;;;;5.60;3.97;;;22.80;78.60;;;;;;6285986;27;89138;-69
2022/01/01 15:10:20;;;;;;;6.20;3.85;;;22.80;78.60;;;;;;6282901;27;89007;-68
2022/01/01 15:13:23;;;;;;;6.15;3.70;;;22.80;78.60;;;;;;6298875;27;89421;-69
2022/01/01 15:16:25;;;;;;;5.55;4.30;;;22.80;78.70;;;;;;6289767;27;88360;-69
2022/01/01 15:19:29;;;;;;;7.82;5.47;;;22.80;78.60;;;;;;6303619;27;87953;-70
2022/01/01 15:22:45;;;;;;;8.77;5.57;;;22.70;78.60;;;;;;6293824;27;88030;-69
2022/01/01 15:25:47;;;;;;;13.52;8.68;;;22.80;78.60;;;;;;6298648;27;90042;-69
2022/01/01 15:28:55;;;;;;;15.13;9.68;;;22.80;78.60;;;;;;6296533;27;89252;-69
2022/01/01 15:35:28;;;;;;;16.50;11.73;;;22.80;78.50;;;;;;6283421;27;87044;-69
2022/01/01 15:38:37;;;;;;;20.60;13.55;;;22.80;78.50;;;;;;6293821;27;89278;-69
2022/01/01 15:42:06;;;;;;;19.55;14.35;;;22.80;78.40;;;;;;6282206;27;89115;-68
2022/01/01 15:45:09;;;;;;;24.70;16.52;;;22.80;78.50;;;;;;6304208;27;87999;-68